KAC102 OTHH-OKKK
Flight info
| Callsign | KAC102 |
|---|---|
| Flight time | N/A |
| Altitude | 26000 |
| Route | TULUB2A/34L TULUB B457 BHR A453 DEBTI |
| Aircraft | A339/H-SADE1E2E3GHIJ3J5M1P2RWXY/LB2D1 |
Departure
| Time | N/A |
|---|---|
| Airport | Hamad International Airport (OTHH) |
Arrival
| Time | 2026-05-03 22:12 |
|---|---|
| Airport | Kuwait International Airport (OKKK) |
| Time | Latitude | Longitude | Altitude | Speed | Heading |
|---|---|---|---|---|---|
| 2026-05-03 22:05 | 28.95786 | 48.13522 | 3026 ft | 210 kts | 307° |
| 2026-05-03 22:05 | 28.96643 | 48.12174 | 3021 ft | 209 kts | 310° |
| 2026-05-03 22:06 | 28.97697 | 48.11046 | 3027 ft | 208 kts | 326° |
| 2026-05-03 22:06 | 28.98912 | 48.10222 | 3020 ft | 196 kts | 330° |
| 2026-05-03 22:06 | 29.00060 | 48.09459 | 3034 ft | 193 kts | 330° |
| 2026-05-03 22:06 | 29.01216 | 48.08673 | 3024 ft | 192 kts | 329° |
| 2026-05-03 22:07 | 29.02355 | 48.07884 | 3026 ft | 192 kts | 329° |
| 2026-05-03 22:07 | 29.03495 | 48.07088 | 3025 ft | 192 kts | 329° |
| 2026-05-03 22:07 | 29.04634 | 48.06291 | 3027 ft | 192 kts | 329° |
| 2026-05-03 22:07 | 29.05804 | 48.05561 | 3005 ft | 192 kts | 335° |
| 2026-05-03 22:08 | 29.07031 | 48.04949 | 2934 ft | 194 kts | 337° |
| 2026-05-03 22:08 | 29.08269 | 48.04373 | 2776 ft | 192 kts | 339° |
| 2026-05-03 22:08 | 29.09548 | 48.03841 | 2433 ft | 196 kts | 341° |
| 2026-05-03 22:08 | 29.10777 | 48.03333 | 2355 ft | 179 kts | 335° |
| 2026-05-03 22:09 | 29.11884 | 48.02833 | 2123 ft | 163 kts | 336° |
| 2026-05-03 22:09 | 29.12918 | 48.02304 | 1983 ft | 165 kts | 333° |
| 2026-05-03 22:09 | 29.13907 | 48.01622 | 1899 ft | 166 kts | 328° |
| 2026-05-03 22:10 | 29.15814 | 48.00441 | 1336 ft | 149 kts | 334° |
| 2026-05-03 22:10 | 29.16707 | 47.99973 | 1154 ft | 137 kts | 337° |
| 2026-05-03 22:10 | 29.17590 | 47.99555 | 981 ft | 139 kts | 334° |
| 2026-05-03 22:10 | 29.18514 | 47.99112 | 796 ft | 149 kts | 335° |
| 2026-05-03 22:11 | 29.19469 | 47.98607 | 685 ft | 154 kts | 333° |
| 2026-05-03 22:11 | 29.20467 | 47.98059 | 421 ft | 161 kts | 334° |
| 2026-05-03 22:11 | 29.21452 | 47.97534 | 213 ft | 150 kts | 334° |
| 2026-05-03 22:11 | 29.22234 | 47.97116 | 199 ft | 91 kts | 335° |
| 2026-05-03 22:12 | 29.22661 | 47.96888 | 202 ft | 59 kts | 335° |
| 2026-05-03 22:12 | 29.22991 | 47.96714 | 201 ft | 21 kts | 336° |
| 2026-05-03 22:12 | 29.23091 | 47.96713 | 198 ft | 6 kts | 40° |
| 2026-05-03 22:12 | 29.23098 | 47.96729 | 209 ft | 0 kts | 60° |
| 2026-05-03 22:13 | 29.23099 | 47.96730 | 209 ft | 1 kts | 60° |
| 2026-05-03 22:13 | 29.23104 | 47.96742 | 205 ft | 3 kts | 60° |
| 2026-05-03 22:13 | 29.23118 | 47.96769 | 204 ft | 5 kts | 61° |
| 2026-05-03 22:13 | 29.23138 | 47.96816 | 206 ft | 8 kts | 64° |
| 2026-05-03 22:14 | 29.23178 | 47.96883 | 200 ft | 13 kts | 65° |
| 2026-05-03 22:14 | 29.23256 | 47.96930 | 193 ft | 16 kts | 346° |
| 2026-05-03 22:14 | 29.23371 | 47.96872 | 201 ft | 20 kts | 335° |
| 2026-05-03 22:14 | 29.23500 | 47.96801 | 196 ft | 22 kts | 329° |
| 2026-05-03 22:15 | 29.23566 | 47.96663 | 203 ft | 17 kts | 310° |
| 2026-05-03 22:15 | 29.23679 | 47.96602 | 198 ft | 20 kts | 334° |
| 2026-05-03 22:15 | 29.23817 | 47.96525 | 197 ft | 24 kts | 334° |
| 2026-05-03 22:15 | 29.23978 | 47.96441 | 198 ft | 27 kts | 335° |
| 2026-05-03 22:16 | 29.24156 | 47.96345 | 202 ft | 29 kts | 335° |
| 2026-05-03 22:16 | 29.24347 | 47.96245 | 183 ft | 32 kts | 335° |
| 2026-05-03 22:16 | 29.24563 | 47.96130 | 172 ft | 37 kts | 334° |
| 2026-05-03 22:16 | 29.24811 | 47.95998 | 158 ft | 35 kts | 335° |
| 2026-05-03 22:17 | 29.24881 | 47.95968 | 155 ft | 8 kts | 355° |
| 2026-05-03 22:17 | 29.24934 | 47.96014 | 154 ft | 12 kts | 45° |
| 2026-05-03 22:17 | 29.24980 | 47.96074 | 152 ft | 1 kts | 49° |
| 2026-05-03 22:17 | 29.24989 | 47.96085 | 151 ft | 0 kts | 49° |